Latest Weather Observations for Warburton

IDW60801

Issued at 11:53 pm WST Tuesday 18 February 2020 (issued every 10 minutes, with the page automatically refreshed every 10 minutes)

About weather observations | Map of weather stations | Latest weather observations for WA | Other Formats
Station Details ID: 013011 Name: WARBURTON AIRFIELD Lat: -26.13 Lon: 126.58 Height: 459.0 m
Data from the previous 72 hours. | See also: Recent months at Warburton
Date/Time
WST
Temp
°C
App
Temp
°C
Dew
Point
°C
Rel
Hum
%
Delta-T
°C
Wind Press
QNH
hPa
Press
MSL
hPa
Rain since
9am
mm
Dir  Spd
km/h
Gust
km/h
Spd
kts
Gust
kts
18/11:30pm 26.6 20.4 6.1 27 10.9 SE 28 37 15 20 1014.7 1011.2 0.0
18/11:00pm 27.1 21.0 6.5 27 11.0 SE 28 37 15 20 1015.1 1011.6 0.0
18/10:30pm 27.8 21.4 7.1 27 11.3 SE 30 41 16 22 1015.3 1011.8 0.0
18/10:00pm 28.2 22.4 8.0 28 11.2 SE 28 39 15 21 1015.6 1012.2 0.0
18/09:30pm 28.6 23.0 8.8 29 11.1 SE 28 43 15 23 1015.6 1012.2 0.0
18/09:00pm 28.9 23.5 9.6 30 11.0 SE 28 39 15 21 1015.6 1012.2 0.0
18/08:30pm 29.2 23.9 9.9 30 11.1 SE 28 44 15 24 1015.4 1011.9 0.0
18/08:00pm 29.9 24.8 10.5 30 11.3 SSE 28 39 15 21 1015.0 1011.5 0.0
18/07:30pm 30.5 25.0 10.5 29 11.6 SE 30 41 16 22 1014.8 1011.3 0.0
18/07:00pm 31.2 26.1 10.5 28 12.1 SSE 28 37 15 20 1014.5 1011.0 0.0
18/06:30pm 31.7 27.3 10.4 27 12.5 SE 24 35 13 19 1014.1 1010.7 0.0
18/06:00pm 32.2 27.9 10.8 27 12.6 SE 24 32 13 17 1013.7 1010.3 0.0
18/05:30pm 32.4 27.2 10.4 26 12.9 SE 28 37 15 20 1013.4 1009.9 0.0
18/05:00pm 33.3 28.0 11.2 26 13.2 SE 30 41 16 22 1013.2 1009.7 0.0
18/04:30pm 34.2 30.1 11.4 25 13.7 SE 24 37 13 20 1013.1 1009.6 0.0
18/04:00pm 34.7 30.5 11.2 24 14.1 SE 24 35 13 19 1013.1 1009.6 0.0
18/03:30pm 34.5 30.1 11.6 25 13.8 ESE 26 39 14 21 1013.1 1009.6 0.0
18/03:00pm 33.3 28.0 11.2 26 13.2 SE 30 54 16 29 1013.3 1009.8 0.0
18/02:56pm 34.4 29.4 12.1 26 13.5 SE 30 54 16 29 1013.2 1009.7 0.0
18/02:30pm 33.9 29.1 11.7 26 13.4 SE 28 41 15 22 1013.6 1010.2 0.0
18/02:00pm 32.3 26.8 12.0 29 12.2 SE 32 44 17 24 1014.0 1010.6 0.0
18/01:44pm 31.8 26.8 12.1 30 11.8 SE 30 48 16 26 1014.2 1010.8 0.0
18/01:30pm 31.9 26.5 12.2 30 11.8 SE 32 46 17 25 1014.5 1011.0 0.0
18/01:05pm 31.6 26.7 12.4 31 11.6 SE 30 48 16 26 1015.0 1011.5 0.0
18/01:00pm 31.6 26.8 12.9 32 11.4 SE 30 44 16 24 1015.1 1011.6 0.0
18/12:50pm 30.9 25.7 12.8 33 10.9 SE 32 50 17 27 1015.3 1011.8 0.0
18/12:30pm 30.0 25.1 12.4 34 10.5 SE 30 41 16 22 1015.7 1012.3 0.0
18/12:00pm 29.5 24.2 12.4 35 10.2 SE 32 43 17 23 1016.1 1012.7 0.0
18/11:30am 29.0 24.6 12.8 36 9.7 SE 28 43 15 23 1016.6 1013.2 0.0
18/11:00am 26.8 21.9 12.5 41 8.5 SE 30 39 16 21 1017.0 1013.5 0.0
18/10:30am 26.4 21.2 12.8 43 8.1 SE 32 43 17 23 1017.5 1014.0 0.0
18/10:00am 25.3 20.0 12.5 45 7.5 SE 32 43 17 23 1017.8 1014.4 0.0
18/09:30am 24.7 19.6 13.0 48 6.9 SE 32 46 17 25 1018.0 1014.6 0.0
18/09:00am 24.2 19.1 13.1 50 6.6 SE 32 46 17 25 1018.3 1014.9 0.0
18/08:30am 23.2 18.3 12.5 51 6.2 SE 30 41 16 22 1018.6 1015.2 0.0
18/08:00am 22.2 17.4 13.0 56 5.4 SE 30 43 16 23 1018.5 1015.1 0.0
18/07:30am 21.7 16.5 12.8 57 5.2 SE 32 44 17 24 1018.3 1014.9 0.0
18/07:00am 21.7 16.9 12.8 57 5.2 ESE 30 41 16 22 1018.1 1014.7 0.0
18/06:30am 22.0 16.9 13.1 57 5.2 SE 32 44 17 24 1017.8 1014.4 0.0
18/06:00am 22.4 17.7 13.2 56 5.4 SE 30 41 16 22 1017.7 1014.3 0.0
18/05:30am 22.9 17.8 13.1 54 5.8 SE 32 41 17 22 1017.3 1013.8 0.0
18/05:00am 23.3 19.4 13.2 53 5.9 SE 26 39 14 21 1017.2 1013.7 0.0
18/04:30am 24.1 19.5 13.6 52 6.3 SE 30 46 16 25 1016.4 1013.0 0.0
18/04:00am 24.7 19.2 13.6 50 6.6 SE 35 46 19 25 1015.6 1012.2 0.0
18/03:50am 24.9 19.9 13.5 49 6.8 SE 32 50 17 27 1015.6 1012.2 0.0
18/03:30am 25.4 21.2 13.6 48 7.1 SE 28 39 15 21 1015.7 1012.3 0.0
18/03:00am 25.9 20.8 13.7 47 7.3 SE 33 43 18 23 1015.4 1011.9 0.0
18/02:30am 26.9 23.1 14.6 46 7.5 SE 28 41 15 22 1015.2 1011.7 0.0
18/02:00am 27.2 22.4 14.6 46 7.7 SE 33 46 18 25 1015.0 1011.5 0.0
18/01:30am 27.4 23.0 15.1 47 7.6 SE 32 46 17 25 1014.7 1011.2 0.0
18/01:00am 27.5 22.7 15.5 48 7.5 SE 35 46 19 25 1014.6 1011.1 0.0
18/12:30am 27.5 23.3 15.8 48 7.3 SE 32 54 17 29 1014.7 1011.2 0.0
18/12:00am 27.6 23.5 15.9 49 7.3 SE 32 46 17 25 1014.9 1011.4 0.0
 
Date/Time
WST
Temp
°C
App
Temp
°C
Dew
Point
°C
Rel
Hum
%
Delta-T
°C
Wind Press
QNH
hPa
Press
MSL
hPa
Rain since
9am
mm
Dir  Spd
km/h
Gust
km/h
Spd
kts
Gust
kts
17/11:30pm 27.7 23.4 16.0 49 7.3 SE 33 48 18 26 1015.1 1011.6 0.0
17/11:24pm 27.7 24.0 16.0 49 7.3 SE 30 48 16 26 1015.1 1011.6 0.0
17/11:00pm 27.8 23.6 16.1 49 7.3 SE 33 46 18 25 1015.3 1011.8 0.0
17/10:30pm 27.8 23.9 16.4 50 7.2 SE 32 43 17 23 1015.5 1012.0 0.0
17/10:00pm 27.7 23.5 16.3 49 7.2 SE 33 43 18 23 1015.5 1012.0 0.0
17/09:30pm 27.5 24.0 16.5 51 6.9 SSE 30 44 16 24 1015.7 1012.3 0.0
17/09:00pm 27.8 24.3 16.4 50 7.2 SSE 30 44 16 24 1015.7 1012.3 0.0
17/08:30pm 28.2 24.8 16.8 50 7.2 SSE 30 43 16 23 1015.7 1012.3 0.0
17/08:00pm 29.3 26.0 16.1 44 8.3 SSE 28 39 15 21 1015.4 1011.9 0.0
17/07:30pm 29.6 27.1 16.1 44 8.5 SSE 24 33 13 18 1015.1 1011.6 0.0
17/07:00pm 29.7 26.8 16.1 43 8.6 SSE 26 39 14 21 1014.8 1011.3 0.0
17/06:30pm 29.7 26.6 16.5 45 8.4 SSE 28 41 15 22 1014.3 1010.9 0.0
17/06:00pm 29.9 27.0 17.0 45 8.3 SSE 28 39 15 21 1014.1 1010.7 0.0
17/05:30pm 31.2 29.1 17.1 42 9.1 S 24 35 13 19 1014.0 1010.6 0.0
17/05:00pm 31.8 29.2 16.9 40 9.6 S 26 37 14 20 1013.8 1010.4 0.0
17/04:30pm 34.0 30.5 13.5 29 12.7 S 24 35 13 19 1013.7 1010.3 0.0
17/04:00pm 34.7 29.6 11.8 25 13.8 SSE 30 41 16 22 1013.2 1009.7 0.0
17/03:30pm 35.4 30.2 10.4 22 14.8 SSE 28 39 15 21 1013.2 1009.7 0.0
17/03:00pm 35.5 29.8 11.2 23 14.6 SE 32 39 17 21 1013.0 1009.5 0.0
17/02:30pm 35.9 30.5 10.9 22 15.0 SSE 30 41 16 22 1013.2 1009.7 0.0
17/02:00pm 36.0 30.4 10.2 21 15.3 SSE 30 41 16 22 1013.4 1009.9 0.0
17/01:30pm 37.1 31.3 9.6 19 16.2 SSE 30 43 16 23 1013.4 1009.9 0.0
17/01:00pm 37.3 32.6 10.6 20 16.0 SSE 26 41 14 22 1013.5 1010.0 0.0
17/12:30pm 37.4 32.6 12.8 23 15.2 SE 30 43 16 23 1013.6 1010.2 0.0
17/12:00pm 37.6 33.0 12.3 22 15.6 SE 28 43 15 23 1013.7 1010.3 0.0
17/11:30am 36.8 31.3 12.3 23 15.0 SSE 33 46 18 25 1013.9 1010.5 0.0
17/11:00am 36.6 31.3 11.4 22 15.3 SSE 30 46 16 25 1014.3 1010.9 0.0
17/10:30am 36.1 30.9 11.7 23 14.8 SE 30 44 16 24 1014.6 1011.1 0.0
17/10:00am 36.1 31.3 13.0 25 14.3 SE 30 41 16 22 1015.0 1011.5 0.0
17/09:30am 36.1 30.8 13.0 25 14.3 SE 33 50 18 27 1015.1 1011.6 0.0
17/09:00am 35.1 30.3 13.9 28 13.2 SE 32 43 17 23 1015.2 1011.7 0.0
17/08:30am 33.2 28.0 13.3 30 12.2 SE 33 43 18 23 1015.2 1011.7 0.0
17/08:00am 32.1 27.6 13.8 33 11.3 SE 30 41 16 22 1015.2 1011.7 0.0
17/07:30am 31.0 26.7 13.3 34 10.8 SE 28 37 15 20 1015.0 1011.5 0.0
17/07:00am 30.7 26.5 13.5 35 10.5 SE 28 39 15 21 1014.7 1011.2 0.0
17/06:30am 30.3 26.9 13.6 36 10.2 SSE 24 35 13 19 1014.6 1011.1 0.0
17/06:00am 30.0 26.9 13.3 36 10.1 SSE 22 33 12 18 1014.2 1010.8 0.0
17/05:30am 30.0 27.2 13.3 36 10.1 SSE 20 28 11 15 1013.7 1010.3 0.0
17/05:00am 30.2 27.3 13.0 34 10.4 SE 20 26 11 14 1013.3 1009.8 0.0
17/04:30am 30.3 26.3 13.1 34 10.4 SE 26 33 14 18 1013.0 1009.5 0.0
17/04:06am 30.5 26.2 13.3 35 10.5 SSE 28 46 15 25 1013.1 1009.6 0.0
17/04:00am 30.5 26.6 13.3 35 10.5 SSE 26 41 14 22 1013.0 1009.5 0.0
17/03:30am 30.8 25.9 12.7 33 10.9 SSE 30 39 16 21 1012.5 1009.0 0.0
17/03:00am 31.1 26.7 12.9 32 11.0 SSE 28 37 15 20 1012.0 1008.6 0.0
17/02:30am 31.0 27.5 13.3 34 10.8 S 24 32 13 17 1011.9 1008.5 0.0
17/02:00am 31.7 27.7 13.0 32 11.4 S 26 35 14 19 1011.9 1008.5 0.0
17/01:30am 32.9 28.0 11.4 27 12.8 SSW 28 41 15 22 1011.8 1008.4 0.0
17/01:00am 34.4 27.9 6.7 18 15.5 SSW 30 43 16 23 1011.2 1007.7 0.0
17/12:43am 32.3 27.6 7.9 22 13.8 SSW 22 52 12 28 1010.7 1007.2 0.0
17/12:40am 32.8 29.5 6.2 19 14.6 S 13 39 7 21 1010.8 1007.3 0.0
17/12:30am 32.9 30.2 5.5 18 14.9 ESE 9 15 5 8 1009.7 1006.3 0.0
17/12:00am 34.5 30.9 5.0 16 16.1 E 13 17 7 9 1009.9 1006.4 0.0
 
Date/Time
WST
Temp
°C
App
Temp
°C
Dew
Point
°C
Rel
Hum
%
Delta-T
°C
Wind Press
QNH
hPa
Press
MSL
hPa
Rain since
9am
mm
Dir  Spd
km/h
Gust
km/h
Spd
kts
Gust
kts
16/11:30pm 34.9 31.4 5.4 16 16.2 ENE 13 19 7 10 1010.0 1006.5 0.0
16/11:00pm 34.5 31.6 6.7 18 15.6 ENE 11 15 6 8 1009.9 1006.4 0.0
16/10:30pm 32.4 30.4 7.3 21 14.0 E 7 11 4 6 1010.1 1006.6 0.0
16/10:00pm 32.1 31.4 7.0 21 14.0 CALM 0 0 0 0 1010.1 1006.6 0.0
16/09:30pm 33.6 32.5 6.8 19 14.9 E 2 6 1 3 1010.1 1006.6 0.0
16/09:00pm 33.4 31.3 6.6 19 14.9 E 7 9 4 5 1010.0 1006.5 0.0
16/08:30pm 34.4 32.3 6.7 18 15.5 E 7 9 4 5 1009.9 1006.4 0.0
16/08:00pm 35.9 33.5 7.0 17 16.4 E 9 9 5 5 1009.5 1006.0 0.0
16/07:30pm 37.2 34.6 6.3 15 17.4 E 9 11 5 6 1009.4 1005.9 0.0
16/07:00pm 38.6 35.3 6.3 14 18.3 ESE 13 19 7 10 1009.2 1005.7 0.0
16/06:30pm 39.3 35.4 6.9 14 18.6 ESE 17 22 9 12 1008.9 1005.4 0.0
16/06:00pm 40.0 36.7 6.4 13 19.2 ESE 13 19 7 10 1008.6 1005.1 0.0
16/05:30pm 40.8 36.6 5.8 12 19.9 SE 17 26 9 14 1008.4 1004.9 0.0
16/05:00pm 41.3 37.2 6.2 12 20.1 ESE 17 26 9 14 1008.4 1004.9 0.0
16/04:30pm 41.5 37.5 5.1 11 20.5 S 15 26 8 14 1008.5 1005.0 0.0
16/04:00pm 41.5 39.1 5.1 11 20.6 S 7 15 4 8 1008.7 1005.2 0.0
16/03:30pm 42.0 38.0 6.7 12 20.4 S 17 28 9 15 1008.7 1005.2 0.0
16/03:00pm 42.3 37.8 7.0 12 20.6 ESE 20 32 11 17 1008.7 1005.2 0.0
16/02:30pm 41.7 37.4 5.3 11 20.6 SE 17 26 9 14 1009.0 1005.5 0.0
16/02:00pm 41.6 37.2 6.4 12 20.3 SSW 19 28 10 15 1009.2 1005.7 0.0
16/01:30pm 41.1 37.1 4.8 11 20.3 E 15 26 8 14 1009.5 1006.0 0.0
16/01:00pm 40.8 37.1 4.6 11 20.2 SE 13 22 7 12 1010.0 1006.5 0.0
16/12:30pm 40.5 36.0 4.3 11 20.1 ESE 17 30 9 16 1010.5 1007.0 0.0
16/12:00pm 39.5 34.9 3.6 11 19.6 NNE 17 26 9 14 1010.9 1007.4 0.0
16/11:30am 39.9 34.8 3.9 11 19.8 ENE 20 33 11 18 1011.3 1007.8 0.0
16/11:00am 38.9 33.6 3.1 11 19.4 ENE 20 33 11 18 1011.7 1008.3 0.0
16/10:30am 37.9 32.9 3.6 12 18.6 NE 19 32 10 17 1012.2 1008.7 0.0
16/10:00am 38.1 33.1 3.8 12 18.7 NE 19 28 10 15 1012.6 1009.1 0.0
16/09:30am 36.8 31.7 2.8 12 18.1 ENE 19 28 10 15 1012.8 1009.3 0.0
16/09:00am 35.7 30.6 3.0 13 17.4 NE 19 26 10 14 1012.9 1009.4 0.0
16/08:30am 34.6 29.3 3.2 14 16.6 NE 20 28 11 15 1013.1 1009.6 0.0
16/08:00am 33.0 27.5 3.9 16 15.4 ENE 22 33 12 18 1013.0 1009.5 0.0
16/07:30am 31.9 26.9 4.6 18 14.6 ENE 20 32 11 17 1013.2 1009.7 0.0
16/07:00am 30.2 25.1 4.0 19 13.7 ENE 20 33 11 18 1013.2 1009.7 0.0
16/06:30am 29.3 24.4 4.0 20 13.2 ENE 19 30 10 16 1013.2 1009.7 0.0
16/06:00am 28.1 24.6 3.7 21 12.5 SE 11 15 6 8 1013.0 1009.5 0.0
16/05:30am 27.2 24.1 3.7 22 12.0 ESE 9 15 5 8 1012.9 1009.4 0.0
16/05:00am 27.5 23.3 3.9 22 12.1 E 15 20 8 11 1012.5 1009.0 0.0
16/04:30am 27.7 23.9 4.1 22 12.2 E 13 20 7 11 1011.9 1008.5 0.0
16/04:00am 27.8 23.2 3.5 21 12.4 E 17 22 9 12 1011.8 1008.4 0.0
16/03:30am 27.9 23.7 3.6 21 12.4 E 15 20 8 11 1011.6 1008.2 0.0
16/03:00am 28.1 24.3 3.7 21 12.6 E 13 17 7 9 1011.7 1008.3 0.0
16/02:30am 28.4 24.5 3.3 20 12.8 E 13 19 7 10 1011.6 1008.2 0.0
16/02:00am 28.8 24.9 3.6 20 13.0 E 13 19 7 10 1011.7 1008.3 0.0
16/01:30am 29.4 24.4 3.4 19 13.4 E 19 30 10 16 1011.6 1008.2 0.0
16/01:00am 29.9 24.8 3.0 18 13.8 ESE 19 28 10 15 1011.7 1008.3 0.0
16/12:30am 30.1 25.9 4.0 19 13.6 ESE 15 20 8 11 1012.0 1008.6 0.0
16/12:00am 30.6 26.7 3.6 18 14.1 E 13 20 7 11 1012.5 1009.0 0.0

Other formats

Comma delimited format used in spreadsheet applications
http://www.bom.gov.au/fwo/IDW60801/IDW60801.94457.axf

JavaScript Object Notation format (JSON) in row-major order
http://www.bom.gov.au/fwo/IDW60801/IDW60801.94457.json

Data quality

Most of these data are generated automatically and are frequently updated. Quality checks on data are not normally performed. It is possible for incorrect values to appear. Refer to information at About Latest Weather Observations and please check the disclaimer before using these data.